sensor_id;sensor_type;location;lat;lon;timestamp;temperature;humidity
48208;DHT22;33997;53.278;9.708;2023-04-24T00:01:15;11.00;98.30
48208;DHT22;33997;53.278;9.708;2023-04-24T00:03:42;11.00;98.30
48208;DHT22;33997;53.278;9.708;2023-04-24T00:06:08;11.00;98.30
48208;DHT22;33997;53.278;9.708;2023-04-24T00:08:34;10.90;98.30
48208;DHT22;33997;53.278;9.708;2023-04-24T00:11:00;10.90;98.40
48208;DHT22;33997;53.278;9.708;2023-04-24T00:13:25;10.80;98.30
48208;DHT22;33997;53.278;9.708;2023-04-24T00:15:51;10.80;98.40
48208;DHT22;33997;53.278;9.708;2023-04-24T00:18:17;10.70;98.40
48208;DHT22;33997;53.278;9.708;2023-04-24T00:20:42;10.80;98.30
48208;DHT22;33997;53.278;9.708;2023-04-24T00:23:09;10.70;98.30
48208;DHT22;33997;53.278;9.708;2023-04-24T00:25:34;10.70;98.20
48208;DHT22;33997;53.278;9.708;2023-04-24T00:28:00;10.60;98.10
48208;DHT22;33997;53.278;9.708;2023-04-24T00:30:25;10.60;98.20
48208;DHT22;33997;53.278;9.708;2023-04-24T00:32:51;10.60;98.20
48208;DHT22;33997;53.278;9.708;2023-04-24T00:35:16;10.60;98.10
48208;DHT22;33997;53.278;9.708;2023-04-24T00:37:42;10.60;97.90
48208;DHT22;33997;53.278;9.708;2023-04-24T00:40:08;10.60;97.80
48208;DHT22;33997;53.278;9.708;2023-04-24T00:42:34;10.50;97.80
48208;DHT22;33997;53.278;9.708;2023-04-24T00:45:00;10.50;97.90
48208;DHT22;33997;53.278;9.708;2023-04-24T00:47:26;10.50;97.90
48208;DHT22;33997;53.278;9.708;2023-04-24T00:49:53;10.50;97.80
48208;DHT22;33997;53.278;9.708;2023-04-24T00:52:18;10.50;97.80
48208;DHT22;33997;53.278;9.708;2023-04-24T00:54:44;10.50;97.60
48208;DHT22;33997;53.278;9.708;2023-04-24T00:57:10;10.50;97.70
48208;DHT22;33997;53.278;9.708;2023-04-24T00:59:36;10.60;97.50
48208;DHT22;33997;53.278;9.708;2023-04-24T01:02:02;10.70;97.30
48208;DHT22;33997;53.278;9.708;2023-04-24T01:04:28;10.70;97.30
48208;DHT22;33997;53.278;9.708;2023-04-24T01:06:54;10.70;97.00
48208;DHT22;33997;53.278;9.708;2023-04-24T01:09:23;10.70;96.90
48208;DHT22;33997;53.278;9.708;2023-04-24T01:11:49;10.80;96.80
48208;DHT22;33997;53.278;9.708;2023-04-24T01:14:15;10.80;96.80
48208;DHT22;33997;53.278;9.708;2023-04-24T01:16:40;10.70;96.80
48208;DHT22;33997;53.278;9.708;2023-04-24T01:19:06;10.70;96.70
48208;DHT22;33997;53.278;9.708;2023-04-24T01:21:36;10.70;96.50
48208;DHT22;33997;53.278;9.708;2023-04-24T01:24:03;10.60;96.40
48208;DHT22;33997;53.278;9.708;2023-04-24T01:26:29;10.50;96.60
48208;DHT22;33997;53.278;9.708;2023-04-24T01:28:54;10.50;96.80
48208;DHT22;33997;53.278;9.708;2023-04-24T01:31:21;10.40;96.90
48208;DHT22;33997;53.278;9.708;2023-04-24T01:33:47;10.40;97.00
48208;DHT22;33997;53.278;9.708;2023-04-24T01:36:13;10.40;97.10
48208;DHT22;33997;53.278;9.708;2023-04-24T01:38:39;10.40;97.20
48208;DHT22;33997;53.278;9.708;2023-04-24T01:41:05;10.40;97.30
48208;DHT22;33997;53.278;9.708;2023-04-24T01:43:30;10.40;97.20
48208;DHT22;33997;53.278;9.708;2023-04-24T01:45:56;10.40;97.20
48208;DHT22;33997;53.278;9.708;2023-04-24T01:48:22;10.30;97.20
48208;DHT22;33997;53.278;9.708;2023-04-24T01:50:48;10.30;97.20
48208;DHT22;33997;53.278;9.708;2023-04-24T01:53:13;10.30;97.20
48208;DHT22;33997;53.278;9.708;2023-04-24T01:55:39;10.10;97.20
48208;DHT22;33997;53.278;9.708;2023-04-24T01:58:05;10.10;97.20
48208;DHT22;33997;53.278;9.708;2023-04-24T02:00:30;10.10;97.10
48208;DHT22;33997;53.278;9.708;2023-04-24T02:02:56;10.00;97.10
48208;DHT22;33997;53.278;9.708;2023-04-24T02:05:21;9.90;97.30
48208;DHT22;33997;53.278;9.708;2023-04-24T02:07:47;9.80;97.40
48208;DHT22;33997;53.278;9.708;2023-04-24T02:10:13;9.80;97.50
48208;DHT22;33997;53.278;9.708;2023-04-24T02:12:38;9.80;97.50
48208;DHT22;33997;53.278;9.708;2023-04-24T02:15:04;9.80;97.50
48208;DHT22;33997;53.278;9.708;2023-04-24T02:17:31;9.80;97.40
48208;DHT22;33997;53.278;9.708;2023-04-24T02:19:56;9.80;97.10
48208;DHT22;33997;53.278;9.708;2023-04-24T02:22:22;9.80;96.80
48208;DHT22;33997;53.278;9.708;2023-04-24T02:24:47;9.80;96.80
48208;DHT22;33997;53.278;9.708;2023-04-24T02:27:13;9.70;96.80
48208;DHT22;33997;53.278;9.708;2023-04-24T02:29:38;9.60;96.70
48208;DHT22;33997;53.278;9.708;2023-04-24T02:32:04;9.60;96.90
48208;DHT22;33997;53.278;9.708;2023-04-24T02:34:29;9.50;97.00
48208;DHT22;33997;53.278;9.708;2023-04-24T02:36:55;9.50;97.10
48208;DHT22;33997;53.278;9.708;2023-04-24T02:39:21;9.50;97.10
48208;DHT22;33997;53.278;9.708;2023-04-24T02:41:46;9.40;97.00
48208;DHT22;33997;53.278;9.708;2023-04-24T02:44:12;9.50;96.80
48208;DHT22;33997;53.278;9.708;2023-04-24T02:46:37;9.50;96.50
48208;DHT22;33997;53.278;9.708;2023-04-24T02:49:03;9.50;96.30
48208;DHT22;33997;53.278;9.708;2023-04-24T02:51:29;9.50;96.40
48208;DHT22;33997;53.278;9.708;2023-04-24T02:53:55;9.40;96.20
48208;DHT22;33997;53.278;9.708;2023-04-24T02:56:20;9.40;96.20
48208;DHT22;33997;53.278;9.708;2023-04-24T02:58:46;9.40;96.10
48208;DHT22;33997;53.278;9.708;2023-04-24T03:01:11;9.30;96.00
48208;DHT22;33997;53.278;9.708;2023-04-24T03:03:38;9.30;95.60
48208;DHT22;33997;53.278;9.708;2023-04-24T03:06:03;9.40;95.30
48208;DHT22;33997;53.278;9.708;2023-04-24T03:08:31;9.40;94.80
48208;DHT22;33997;53.278;9.708;2023-04-24T03:10:57;9.40;94.80
48208;DHT22;33997;53.278;9.708;2023-04-24T03:13:22;9.30;94.90
48208;DHT22;33997;53.278;9.708;2023-04-24T03:15:48;9.30;95.00
48208;DHT22;33997;53.278;9.708;2023-04-24T03:18:13;9.30;94.50
48208;DHT22;33997;53.278;9.708;2023-04-24T03:20:45;9.30;94.30
48208;DHT22;33997;53.278;9.708;2023-04-24T03:23:11;9.20;94.10
48208;DHT22;33997;53.278;9.708;2023-04-24T03:25:37;9.10;94.40
48208;DHT22;33997;53.278;9.708;2023-04-24T03:28:02;9.10;94.20
48208;DHT22;33997;53.278;9.708;2023-04-24T03:30:28;9.10;94.00
48208;DHT22;33997;53.278;9.708;2023-04-24T03:32:53;9.10;93.60
48208;DHT22;33997;53.278;9.708;2023-04-24T03:35:19;9.20;93.30
48208;DHT22;33997;53.278;9.708;2023-04-24T03:37:44;9.30;92.60
48208;DHT22;33997;53.278;9.708;2023-04-24T03:40:10;9.20;93.00
48208;DHT22;33997;53.278;9.708;2023-04-24T03:42:36;9.30;92.00
48208;DHT22;33997;53.278;9.708;2023-04-24T03:45:01;9.20;91.90
48208;DHT22;33997;53.278;9.708;2023-04-24T03:47:27;9.10;92.10
48208;DHT22;33997;53.278;9.708;2023-04-24T03:49:52;9.10;91.80
48208;DHT22;33997;53.278;9.708;2023-04-24T03:52:19;9.00;92.30
48208;DHT22;33997;53.278;9.708;2023-04-24T03:54:45;9.00;92.40
48208;DHT22;33997;53.278;9.708;2023-04-24T03:57:10;9.20;90.50
48208;DHT22;33997;53.278;9.708;2023-04-24T03:59:36;9.10;91.10
48208;DHT22;33997;53.278;9.708;2023-04-24T04:02:01;9.00;91.30
48208;DHT22;33997;53.278;9.708;2023-04-24T04:04:26;9.00;91.20
48208;DHT22;33997;53.278;9.708;2023-04-24T04:06:52;9.00;91.00
48208;DHT22;33997;53.278;9.708;2023-04-24T04:09:18;9.00;91.00
48208;DHT22;33997;53.278;9.708;2023-04-24T04:11:44;9.00;91.10
48208;DHT22;33997;53.278;9.708;2023-04-24T04:14:09;9.10;90.40
48208;DHT22;33997;53.278;9.708;2023-04-24T04:16:35;9.00;90.70
48208;DHT22;33997;53.278;9.708;2023-04-24T04:19:02;9.00;91.00
48208;DHT22;33997;53.278;9.708;2023-04-24T04:21:28;9.00;91.00
48208;DHT22;33997;53.278;9.708;2023-04-24T04:23:54;9.00;91.20
48208;DHT22;33997;53.278;9.708;2023-04-24T04:26:19;9.00;91.20
48208;DHT22;33997;53.278;9.708;2023-04-24T04:29:01;8.90;91.20
48208;DHT22;33997;53.278;9.708;2023-04-24T04:31:28;8.90;91.30
48208;DHT22;33997;53.278;9.708;2023-04-24T04:33:54;9.00;90.50
48208;DHT22;33997;53.278;9.708;2023-04-24T04:36:20;8.90;90.90
48208;DHT22;33997;53.278;9.708;2023-04-24T04:38:45;8.90;91.00
48208;DHT22;33997;53.278;9.708;2023-04-24T04:41:11;8.90;91.20
48208;DHT22;33997;53.278;9.708;2023-04-24T04:43:36;8.80;91.50
48208;DHT22;33997;53.278;9.708;2023-04-24T04:46:03;8.80;91.20
48208;DHT22;33997;53.278;9.708;2023-04-24T04:48:28;8.80;91.10
48208;DHT22;33997;53.278;9.708;2023-04-24T04:50:56;8.80;91.40
48208;DHT22;33997;53.278;9.708;2023-04-24T04:53:22;8.80;91.50
48208;DHT22;33997;53.278;9.708;2023-04-24T04:55:47;8.80;91.00
48208;DHT22;33997;53.278;9.708;2023-04-24T04:58:13;8.90;91.00
48208;DHT22;33997;53.278;9.708;2023-04-24T05:00:38;8.90;91.30
48208;DHT22;33997;53.278;9.708;2023-04-24T05:03:04;8.90;91.10
48208;DHT22;33997;53.278;9.708;2023-04-24T05:05:30;8.90;90.90
48208;DHT22;33997;53.278;9.708;2023-04-24T05:07:55;9.00;90.50
48208;DHT22;33997;53.278;9.708;2023-04-24T05:10:21;9.20;89.90
48208;DHT22;33997;53.278;9.708;2023-04-24T05:12:46;9.10;90.10
48208;DHT22;33997;53.278;9.708;2023-04-24T05:15:12;9.20;90.20
48208;DHT22;33997;53.278;9.708;2023-04-24T05:17:37;9.30;89.60
48208;DHT22;33997;53.278;9.708;2023-04-24T05:20:05;9.40;89.30
48208;DHT22;33997;53.278;9.708;2023-04-24T05:22:31;9.40;89.10
48208;DHT22;33997;53.278;9.708;2023-04-24T05:24:57;9.50;89.00
48208;DHT22;33997;53.278;9.708;2023-04-24T05:27:22;9.60;88.70
48208;DHT22;33997;53.278;9.708;2023-04-24T05:29:48;9.60;88.50
48208;DHT22;33997;53.278;9.708;2023-04-24T05:32:13;9.60;88.90
48208;DHT22;33997;53.278;9.708;2023-04-24T05:34:39;9.70;88.30
48208;DHT22;33997;53.278;9.708;2023-04-24T05:37:05;9.80;87.50
48208;DHT22;33997;53.278;9.708;2023-04-24T05:39:33;9.80;88.00
48208;DHT22;33997;53.278;9.708;2023-04-24T05:42:00;9.90;87.10
48208;DHT22;33997;53.278;9.708;2023-04-24T05:44:26;9.90;87.70
48208;DHT22;33997;53.278;9.708;2023-04-24T05:46:52;10.00;87.80
48208;DHT22;33997;53.278;9.708;2023-04-24T05:49:17;10.10;87.10
48208;DHT22;33997;53.278;9.708;2023-04-24T05:51:43;10.10;86.40
48208;DHT22;33997;53.278;9.708;2023-04-24T05:54:08;10.20;86.60
48208;DHT22;33997;53.278;9.708;2023-04-24T05:56:34;10.30;86.00
48208;DHT22;33997;53.278;9.708;2023-04-24T05:58:59;10.30;86.60
48208;DHT22;33997;53.278;9.708;2023-04-24T06:01:25;10.40;85.20
48208;DHT22;33997;53.278;9.708;2023-04-24T06:03:50;10.50;85.90
48208;DHT22;33997;53.278;9.708;2023-04-24T06:06:16;10.50;85.70
48208;DHT22;33997;53.278;9.708;2023-04-24T06:08:41;10.50;84.30
48208;DHT22;33997;53.278;9.708;2023-04-24T06:11:09;10.60;85.20
48208;DHT22;33997;53.278;9.708;2023-04-24T06:13:35;10.70;84.70
48208;DHT22;33997;53.278;9.708;2023-04-24T06:16:00;10.80;84.20
48208;DHT22;33997;53.278;9.708;2023-04-24T06:18:26;10.80;84.50
48208;DHT22;33997;53.278;9.708;2023-04-24T06:20:51;10.90;83.80
48208;DHT22;33997;53.278;9.708;2023-04-24T06:23:17;11.00;84.20
48208;DHT22;33997;53.278;9.708;2023-04-24T06:25:42;11.00;84.00
48208;DHT22;33997;53.278;9.708;2023-04-24T06:28:08;11.10;83.30
48208;DHT22;33997;53.278;9.708;2023-04-24T06:30:33;11.10;83.10
48208;DHT22;33997;53.278;9.708;2023-04-24T06:32:59;11.10;83.30
48208;DHT22;33997;53.278;9.708;2023-04-24T06:35:24;11.20;82.80
48208;DHT22;33997;53.278;9.708;2023-04-24T06:37:51;11.20;82.20
48208;DHT22;33997;53.278;9.708;2023-04-24T06:40:17;11.10;81.80
48208;DHT22;33997;53.278;9.708;2023-04-24T06:42:44;11.20;81.90
48208;DHT22;33997;53.278;9.708;2023-04-24T06:45:09;11.40;82.10
48208;DHT22;33997;53.278;9.708;2023-04-24T06:47:35;11.50;82.00
48208;DHT22;33997;53.278;9.708;2023-04-24T06:50:01;11.40;81.60
48208;DHT22;33997;53.278;9.708;2023-04-24T06:52:26;11.50;81.30
48208;DHT22;33997;53.278;9.708;2023-04-24T06:54:52;11.50;80.30
48208;DHT22;33997;53.278;9.708;2023-04-24T06:57:18;11.50;80.50
48208;DHT22;33997;53.278;9.708;2023-04-24T06:59:43;11.60;81.00
48208;DHT22;33997;53.278;9.708;2023-04-24T07:02:09;11.60;81.00
48208;DHT22;33997;53.278;9.708;2023-04-24T07:04:34;11.60;80.00
48208;DHT22;33997;53.278;9.708;2023-04-24T07:07:00;11.70;80.30
48208;DHT22;33997;53.278;9.708;2023-04-24T07:09:26;11.80;79.70
48208;DHT22;33997;53.278;9.708;2023-04-24T07:11:52;11.80;79.60
48208;DHT22;33997;53.278;9.708;2023-04-24T07:14:18;11.70;80.00
48208;DHT22;33997;53.278;9.708;2023-04-24T07:16:44;11.60;79.50
48208;DHT22;33997;53.278;9.708;2023-04-24T07:19:10;11.80;80.20
48208;DHT22;33997;53.278;9.708;2023-04-24T07:21:36;11.90;80.30
48208;DHT22;33997;53.278;9.708;2023-04-24T07:24:01;11.90;79.80
48208;DHT22;33997;53.278;9.708;2023-04-24T07:26:29;11.70;80.00
48208;DHT22;33997;53.278;9.708;2023-04-24T07:28:54;11.70;80.30
48208;DHT22;33997;53.278;9.708;2023-04-24T07:31:20;11.70;80.30
48208;DHT22;33997;53.278;9.708;2023-04-24T07:33:46;11.60;79.90
48208;DHT22;33997;53.278;9.708;2023-04-24T07:36:11;11.60;80.30
48208;DHT22;33997;53.278;9.708;2023-04-24T07:38:44;11.50;80.20
48208;DHT22;33997;53.278;9.708;2023-04-24T07:41:10;11.50;79.60
48208;DHT22;33997;53.278;9.708;2023-04-24T07:43:35;11.50;79.80
48208;DHT22;33997;53.278;9.708;2023-04-24T07:46:01;11.50;80.00
48208;DHT22;33997;53.278;9.708;2023-04-24T07:48:26;11.60;80.40
48208;DHT22;33997;53.278;9.708;2023-04-24T07:50:53;11.60;79.70
48208;DHT22;33997;53.278;9.708;2023-04-24T07:53:18;11.50;79.50
48208;DHT22;33997;53.278;9.708;2023-04-24T07:55:44;11.50;80.00
48208;DHT22;33997;53.278;9.708;2023-04-24T07:58:09;11.40;80.30
48208;DHT22;33997;53.278;9.708;2023-04-24T08:00:35;11.50;80.00
48208;DHT22;33997;53.278;9.708;2023-04-24T08:03:00;11.50;79.80
48208;DHT22;33997;53.278;9.708;2023-04-24T08:05:26;11.50;80.30
48208;DHT22;33997;53.278;9.708;2023-04-24T08:07:53;11.50;79.80
48208;DHT22;33997;53.278;9.708;2023-04-24T08:10:20;11.60;80.40
48208;DHT22;33997;53.278;9.708;2023-04-24T08:12:46;11.80;80.20
48208;DHT22;33997;53.278;9.708;2023-04-24T08:15:11;11.70;78.70
48208;DHT22;33997;53.278;9.708;2023-04-24T08:17:37;11.80;78.90
48208;DHT22;33997;53.278;9.708;2023-04-24T08:20:03;12.40;78.70
48208;DHT22;33997;53.278;9.708;2023-04-24T08:22:30;12.60;76.80
48208;DHT22;33997;53.278;9.708;2023-04-24T08:24:56;12.70;75.80
48208;DHT22;33997;53.278;9.708;2023-04-24T08:27:25;12.50;76.20
48208;DHT22;33997;53.278;9.708;2023-04-24T08:29:53;12.10;76.30
48208;DHT22;33997;53.278;9.708;2023-04-24T08:32:19;12.00;77.50
48208;DHT22;33997;53.278;9.708;2023-04-24T08:34:44;11.90;77.40
48208;DHT22;33997;53.278;9.708;2023-04-24T08:37:10;12.10;78.60
48208;DHT22;33997;53.278;9.708;2023-04-24T08:39:36;12.00;77.70
48208;DHT22;33997;53.278;9.708;2023-04-24T08:42:02;11.90;78.60
48208;DHT22;33997;53.278;9.708;2023-04-24T08:44:32;11.90;78.20
48208;DHT22;33997;53.278;9.708;2023-04-24T08:46:58;11.80;79.30
48208;DHT22;33997;53.278;9.708;2023-04-24T08:49:24;11.90;79.00
48208;DHT22;33997;53.278;9.708;2023-04-24T08:51:50;11.80;78.70
48208;DHT22;33997;53.278;9.708;2023-04-24T08:54:18;11.90;79.00
48208;DHT22;33997;53.278;9.708;2023-04-24T08:56:44;11.90;79.10
48208;DHT22;33997;53.278;9.708;2023-04-24T08:59:10;11.80;78.00
48208;DHT22;33997;53.278;9.708;2023-04-24T09:01:37;11.80;78.10
48208;DHT22;33997;53.278;9.708;2023-04-24T09:04:03;11.80;79.10
48208;DHT22;33997;53.278;9.708;2023-04-24T09:06:30;11.80;79.10
48208;DHT22;33997;53.278;9.708;2023-04-24T09:09:02;11.80;78.20
48208;DHT22;33997;53.278;9.708;2023-04-24T09:11:30;11.90;78.60
48208;DHT22;33997;53.278;9.708;2023-04-24T09:13:56;11.80;77.70
48208;DHT22;33997;53.278;9.708;2023-04-24T09:16:22;11.80;78.50
48208;DHT22;33997;53.278;9.708;2023-04-24T09:18:50;11.70;78.50
48208;DHT22;33997;53.278;9.708;2023-04-24T09:21:15;11.60;79.80
48208;DHT22;33997;53.278;9.708;2023-04-24T09:23:41;11.60;80.40
48208;DHT22;33997;53.278;9.708;2023-04-24T09:26:09;11.50;80.30
48208;DHT22;33997;53.278;9.708;2023-04-24T09:28:40;11.60;79.90
48208;DHT22;33997;53.278;9.708;2023-04-24T09:31:08;11.70;80.10
48208;DHT22;33997;53.278;9.708;2023-04-24T09:33:34;11.80;79.40
48208;DHT22;33997;53.278;9.708;2023-04-24T09:36:00;11.80;79.40
48208;DHT22;33997;53.278;9.708;2023-04-24T09:38:38;11.80;79.40
48208;DHT22;33997;53.278;9.708;2023-04-24T09:41:08;11.70;79.60
48208;DHT22;33997;53.278;9.708;2023-04-24T09:43:38;11.80;80.30
48208;DHT22;33997;53.278;9.708;2023-04-24T09:46:07;11.70;79.50
48208;DHT22;33997;53.278;9.708;2023-04-24T09:48:36;11.70;80.10
48208;DHT22;33997;53.278;9.708;2023-04-24T09:51:04;11.70;79.50
48208;DHT22;33997;53.278;9.708;2023-04-24T09:53:32;11.70;79.70
48208;DHT22;33997;53.278;9.708;2023-04-24T09:56:06;11.70;79.50
48208;DHT22;33997;53.278;9.708;2023-04-24T09:58:32;11.50;78.90
48208;DHT22;33997;53.278;9.708;2023-04-24T10:00:57;11.60;79.70
48208;DHT22;33997;53.278;9.708;2023-04-24T10:03:26;11.60;78.50
48208;DHT22;33997;53.278;9.708;2023-04-24T10:05:58;11.60;77.90
48208;DHT22;33997;53.278;9.708;2023-04-24T10:08:24;11.70;78.40
48208;DHT22;33997;53.278;9.708;2023-04-24T10:10:50;11.80;77.60
48208;DHT22;33997;53.278;9.708;2023-04-24T10:13:15;11.80;77.40
48208;DHT22;33997;53.278;9.708;2023-04-24T10:15:41;11.90;77.90
48208;DHT22;33997;53.278;9.708;2023-04-24T10:18:08;12.00;77.80
48208;DHT22;33997;53.278;9.708;2023-04-24T10:20:36;11.90;76.30
48208;DHT22;33997;53.278;9.708;2023-04-24T10:23:03;12.00;77.10
48208;DHT22;33997;53.278;9.708;2023-04-24T10:25:30;11.80;76.50
48208;DHT22;33997;53.278;9.708;2023-04-24T10:27:57;11.80;77.20
48208;DHT22;33997;53.278;9.708;2023-04-24T10:30:26;11.80;77.00
48208;DHT22;33997;53.278;9.708;2023-04-24T10:32:52;11.80;77.00
48208;DHT22;33997;53.278;9.708;2023-04-24T10:35:18;11.50;76.40
48208;DHT22;33997;53.278;9.708;2023-04-24T10:38:05;11.60;76.90
48208;DHT22;33997;53.278;9.708;2023-04-24T10:40:33;11.60;77.20
48208;DHT22;33997;53.278;9.708;2023-04-24T10:43:02;11.90;76.00
48208;DHT22;33997;53.278;9.708;2023-04-24T10:45:28;12.30;75.50
48208;DHT22;33997;53.278;9.708;2023-04-24T10:47:58;12.50;74.40
48208;DHT22;33997;53.278;9.708;2023-04-24T10:50:30;12.50;74.10
48208;DHT22;33997;53.278;9.708;2023-04-24T10:53:08;12.70;73.70
48208;DHT22;33997;53.278;9.708;2023-04-24T10:55:49;12.80;73.20
48208;DHT22;33997;53.278;9.708;2023-04-24T10:58:16;13.00;73.20
48208;DHT22;33997;53.278;9.708;2023-04-24T11:00:43;12.80;71.90
48208;DHT22;33997;53.278;9.708;2023-04-24T11:03:24;12.80;72.30
48208;DHT22;33997;53.278;9.708;2023-04-24T11:05:56;12.60;73.00
48208;DHT22;33997;53.278;9.708;2023-04-24T11:08:44;12.60;73.10
48208;DHT22;33997;53.278;9.708;2023-04-24T11:11:15;12.50;72.30
48208;DHT22;33997;53.278;9.708;2023-04-24T11:16:33;12.50;74.40
48208;DHT22;33997;53.278;9.708;2023-04-24T11:19:09;12.50;73.10
48208;DHT22;33997;53.278;9.708;2023-04-24T11:21:59;12.40;73.40
48208;DHT22;33997;53.278;9.708;2023-04-24T11:27:00;12.50;73.70
48208;DHT22;33997;53.278;9.708;2023-04-24T11:29:46;12.30;73.50
48208;DHT22;33997;53.278;9.708;2023-04-24T11:35:32;12.30;73.90
48208;DHT22;33997;53.278;9.708;2023-04-24T11:37:40;12.30;73.60
48208;DHT22;33997;53.278;9.708;2023-04-24T11:40:08;12.30;74.00
48208;DHT22;33997;53.278;9.708;2023-04-24T11:42:38;12.40;74.30
48208;DHT22;33997;53.278;9.708;2023-04-24T11:45:11;12.20;73.70
48208;DHT22;33997;53.278;9.708;2023-04-24T11:47:38;12.20;74.50
48208;DHT22;33997;53.278;9.708;2023-04-24T11:50:06;12.30;74.40
48208;DHT22;33997;53.278;9.708;2023-04-24T11:52:36;12.20;73.80
48208;DHT22;33997;53.278;9.708;2023-04-24T11:55:01;12.30;73.90
48208;DHT22;33997;53.278;9.708;2023-04-24T11:57:27;12.30;73.60
48208;DHT22;33997;53.278;9.708;2023-04-24T11:59:59;12.30;73.90
48208;DHT22;33997;53.278;9.708;2023-04-24T12:02:26;12.50;74.50
48208;DHT22;33997;53.278;9.708;2023-04-24T12:04:53;12.30;74.80
48208;DHT22;33997;53.278;9.708;2023-04-24T12:07:19;12.10;75.30
48208;DHT22;33997;53.278;9.708;2023-04-24T12:09:46;12.00;75.70
48208;DHT22;33997;53.278;9.708;2023-04-24T12:12:14;12.00;75.90
48208;DHT22;33997;53.278;9.708;2023-04-24T12:14:58;11.80;76.00
48208;DHT22;33997;53.278;9.708;2023-04-24T12:17:26;11.80;76.50
48208;DHT22;33997;53.278;9.708;2023-04-24T12:19:52;11.80;77.20
48208;DHT22;33997;53.278;9.708;2023-04-24T12:22:18;11.80;76.00
48208;DHT22;33997;53.278;9.708;2023-04-24T12:25:10;11.70;76.40
48208;DHT22;33997;53.278;9.708;2023-04-24T12:27:35;11.70;77.00
48208;DHT22;33997;53.278;9.708;2023-04-24T12:30:04;11.60;76.50
48208;DHT22;33997;53.278;9.708;2023-04-24T12:32:30;11.60;76.30
48208;DHT22;33997;53.278;9.708;2023-04-24T12:34:57;11.60;76.70
48208;DHT22;33997;53.278;9.708;2023-04-24T12:37:24;11.60;76.80
48208;DHT22;33997;53.278;9.708;2023-04-24T12:40:01;11.40;76.30
48208;DHT22;33997;53.278;9.708;2023-04-24T12:42:29;11.30;76.30
48208;DHT22;33997;53.278;9.708;2023-04-24T12:45:05;11.30;76.70
48208;DHT22;33997;53.278;9.708;2023-04-24T12:47:32;11.30;76.80
48208;DHT22;33997;53.278;9.708;2023-04-24T12:49:59;11.30;77.20
48208;DHT22;33997;53.278;9.708;2023-04-24T12:52:26;11.30;77.40
48208;DHT22;33997;53.278;9.708;2023-04-24T12:54:56;11.30;77.70
48208;DHT22;33997;53.278;9.708;2023-04-24T12:57:23;11.30;77.30
48208;DHT22;33997;53.278;9.708;2023-04-24T12:59:48;11.40;78.10
48208;DHT22;33997;53.278;9.708;2023-04-24T13:02:14;11.40;78.10
48208;DHT22;33997;53.278;9.708;2023-04-24T13:04:46;11.30;78.00
48208;DHT22;33997;53.278;9.708;2023-04-24T13:07:12;11.30;78.90
48208;DHT22;33997;53.278;9.708;2023-04-24T13:09:39;11.30;79.40
48208;DHT22;33997;53.278;9.708;2023-04-24T13:12:05;11.20;78.70
48208;DHT22;33997;53.278;9.708;2023-04-24T13:14:33;11.20;79.10
48208;DHT22;33997;53.278;9.708;2023-04-24T13:16:58;11.30;79.00
48208;DHT22;33997;53.278;9.708;2023-04-24T13:19:25;11.60;79.30
48208;DHT22;33997;53.278;9.708;2023-04-24T13:21:51;11.80;77.70
48208;DHT22;33997;53.278;9.708;2023-04-24T13:24:17;12.10;76.00
48208;DHT22;33997;53.278;9.708;2023-04-24T13:26:42;12.40;75.90
48208;DHT22;33997;53.278;9.708;2023-04-24T13:29:08;12.30;74.50
48208;DHT22;33997;53.278;9.708;2023-04-24T13:31:34;12.20;75.10
48208;DHT22;33997;53.278;9.708;2023-04-24T13:34:00;12.00;75.30
48208;DHT22;33997;53.278;9.708;2023-04-24T13:36:26;11.80;75.70
48208;DHT22;33997;53.278;9.708;2023-04-24T13:38:52;11.90;76.00
48208;DHT22;33997;53.278;9.708;2023-04-24T13:41:17;12.10;75.80
48208;DHT22;33997;53.278;9.708;2023-04-24T13:43:42;12.10;74.80
48208;DHT22;33997;53.278;9.708;2023-04-24T13:46:08;12.20;74.50
48208;DHT22;33997;53.278;9.708;2023-04-24T13:48:34;12.50;75.30
48208;DHT22;33997;53.278;9.708;2023-04-24T13:50:59;12.30;75.80
48208;DHT22;33997;53.278;9.708;2023-04-24T13:53:25;12.20;74.90
48208;DHT22;33997;53.278;9.708;2023-04-24T13:55:50;12.00;75.70
48208;DHT22;33997;53.278;9.708;2023-04-24T13:58:16;11.80;76.70
48208;DHT22;33997;53.278;9.708;2023-04-24T14:00:41;11.30;79.40
48208;DHT22;33997;53.278;9.708;2023-04-24T14:03:07;11.10;81.60
48208;DHT22;33997;53.278;9.708;2023-04-24T14:05:32;11.00;83.10
48208;DHT22;33997;53.278;9.708;2023-04-24T14:07:58;10.60;84.40
48208;DHT22;33997;53.278;9.708;2023-04-24T14:10:23;10.40;85.00
48208;DHT22;33997;53.278;9.708;2023-04-24T14:12:50;10.30;85.80
48208;DHT22;33997;53.278;9.708;2023-04-24T14:15:15;10.20;86.80
48208;DHT22;33997;53.278;9.708;2023-04-24T14:17:42;10.20;87.70
48208;DHT22;33997;53.278;9.708;2023-04-24T14:20:07;10.10;87.40
48208;DHT22;33997;53.278;9.708;2023-04-24T14:22:34;10.20;88.60
48208;DHT22;33997;53.278;9.708;2023-04-24T14:24:59;10.10;89.20
48208;DHT22;33997;53.278;9.708;2023-04-24T14:27:26;10.00;89.50
48208;DHT22;33997;53.278;9.708;2023-04-24T14:29:52;9.80;90.40
48208;DHT22;33997;53.278;9.708;2023-04-24T14:32:17;9.70;92.00
48208;DHT22;33997;53.278;9.708;2023-04-24T14:34:43;9.50;93.60
48208;DHT22;33997;53.278;9.708;2023-04-24T14:37:08;9.40;94.70
48208;DHT22;33997;53.278;9.708;2023-04-24T14:39:34;9.30;95.00
48208;DHT22;33997;53.278;9.708;2023-04-24T14:42:00;9.30;95.60
48208;DHT22;33997;53.278;9.708;2023-04-24T14:44:26;9.30;95.50
48208;DHT22;33997;53.278;9.708;2023-04-24T14:46:51;9.30;95.60
48208;DHT22;33997;53.278;9.708;2023-04-24T14:49:17;9.30;95.10
48208;DHT22;33997;53.278;9.708;2023-04-24T14:51:42;9.30;94.90
48208;DHT22;33997;53.278;9.708;2023-04-24T14:54:08;9.30;95.20
48208;DHT22;33997;53.278;9.708;2023-04-24T14:56:34;9.30;95.40
48208;DHT22;33997;53.278;9.708;2023-04-24T14:58:59;9.20;94.60
48208;DHT22;33997;53.278;9.708;2023-04-24T15:01:25;9.20;95.20
48208;DHT22;33997;53.278;9.708;2023-04-24T15:03:50;9.10;95.20
48208;DHT22;33997;53.278;9.708;2023-04-24T15:06:16;8.90;94.50
48208;DHT22;33997;53.278;9.708;2023-04-24T15:08:41;8.80;93.90
48208;DHT22;33997;53.278;9.708;2023-04-24T15:11:07;8.60;94.20
48208;DHT22;33997;53.278;9.708;2023-04-24T15:13:33;8.60;94.60
48208;DHT22;33997;53.278;9.708;2023-04-24T15:15:59;8.40;93.30
48208;DHT22;33997;53.278;9.708;2023-04-24T15:18:24;8.40;93.90
48208;DHT22;33997;53.278;9.708;2023-04-24T15:20:49;8.30;93.80
48208;DHT22;33997;53.278;9.708;2023-04-24T15:23:15;8.30;93.90
48208;DHT22;33997;53.278;9.708;2023-04-24T15:25:40;8.20;94.40
48208;DHT22;33997;53.278;9.708;2023-04-24T15:28:06;8.20;94.90
48208;DHT22;33997;53.278;9.708;2023-04-24T15:30:31;8.10;94.60
48208;DHT22;33997;53.278;9.708;2023-04-24T15:32:57;8.10;94.70
48208;DHT22;33997;53.278;9.708;2023-04-24T15:35:22;8.10;95.10
48208;DHT22;33997;53.278;9.708;2023-04-24T15:37:48;8.00;95.30
48208;DHT22;33997;53.278;9.708;2023-04-24T15:40:14;7.90;95.60